Terminal Aerodrome Forecast
Issued by NWS Wakefield, VA

Home | Current Version | Previous Version | Text Only | Print | Product List | Glossary On
Versions: 1 2 3 4 5 6 7 8 9 10 11 12 13 14 15 16
000
FTUS41 KAKQ 281700
TAFORF
TAF
KORF 281733Z 2818/2918 36012G20KT P6SM SKC
     FM282100 36007KT P6SM SKC
     FM290800 01005KT P6SM SKC
     FM291500 12005KT P6SM SCT250=

USA.gov is the U.S. government's official web portal to all federal, state and local government web resources and services.